sensor_id;sensor_type;location;lat;lon;timestamp;P1;durP1;ratioP1;P2;durP2;ratioP2
75941;SDS011;64622;46.220;19.878;2023-07-09T00:01:23;14.93;;;4.95;;
75941;SDS011;64622;46.220;19.878;2023-07-09T00:03:50;18.23;;;5.37;;
75941;SDS011;64622;46.220;19.878;2023-07-09T00:06:20;14.60;;;6.10;;
75941;SDS011;64622;46.220;19.878;2023-07-09T00:08:47;14.80;;;6.12;;
75941;SDS011;64622;46.220;19.878;2023-07-09T00:11:15;13.80;;;6.05;;
75941;SDS011;64622;46.220;19.878;2023-07-09T00:13:42;16.35;;;6.70;;
75941;SDS011;64622;46.220;19.878;2023-07-09T00:16:23;18.17;;;6.15;;
75941;SDS011;64622;46.220;19.878;2023-07-09T00:18:51;14.57;;;6.13;;
75941;SDS011;64622;46.220;19.878;2023-07-09T00:21:19;14.70;;;5.93;;
75941;SDS011;64622;46.220;19.878;2023-07-09T00:23:46;16.30;;;5.93;;
75941;SDS011;64622;46.220;19.878;2023-07-09T00:26:17;13.00;;;5.43;;
75941;SDS011;64622;46.220;19.878;2023-07-09T00:28:46;14.23;;;6.30;;
75941;SDS011;64622;46.220;19.878;2023-07-09T00:31:14;15.23;;;6.40;;
75941;SDS011;64622;46.220;19.878;2023-07-09T00:33:42;15.77;;;6.05;;
75941;SDS011;64622;46.220;19.878;2023-07-09T00:36:20;19.50;;;6.62;;
75941;SDS011;64622;46.220;19.878;2023-07-09T00:38:53;26.12;;;7.07;;
75941;SDS011;64622;46.220;19.878;2023-07-09T00:41:21;18.52;;;6.65;;
75941;SDS011;64622;46.220;19.878;2023-07-09T00:43:50;20.77;;;6.63;;
75941;SDS011;64622;46.220;19.878;2023-07-09T00:48:52;19.35;;;6.93;;
75941;SDS011;64622;46.220;19.878;2023-07-09T00:51:24;20.58;;;7.05;;
75941;SDS011;64622;46.220;19.878;2023-07-09T00:53:54;14.80;;;6.12;;
75941;SDS011;64622;46.220;19.878;2023-07-09T00:56:27;13.13;;;6.40;;
75941;SDS011;64622;46.220;19.878;2023-07-09T00:59:04;14.50;;;6.47;;
75941;SDS011;64622;46.220;19.878;2023-07-09T01:01:34;21.37;;;6.97;;
75941;SDS011;64622;46.220;19.878;2023-07-09T01:04:01;13.75;;;6.40;;
75941;SDS011;64622;46.220;19.878;2023-07-09T01:06:36;15.27;;;6.07;;
75941;SDS011;64622;46.220;19.878;2023-07-09T01:09:06;16.77;;;7.07;;
75941;SDS011;64622;46.220;19.878;2023-07-09T01:11:33;18.92;;;6.40;;
75941;SDS011;64622;46.220;19.878;2023-07-09T01:14:04;19.10;;;6.62;;
75941;SDS011;64622;46.220;19.878;2023-07-09T01:16:34;16.05;;;6.22;;
75941;SDS011;64622;46.220;19.878;2023-07-09T01:19:12;16.67;;;5.97;;
75941;SDS011;64622;46.220;19.878;2023-07-09T01:21:40;16.27;;;6.90;;
75941;SDS011;64622;46.220;19.878;2023-07-09T01:24:13;16.60;;;6.60;;
75941;SDS011;64622;46.220;19.878;2023-07-09T01:26:53;16.25;;;6.90;;
75941;SDS011;64622;46.220;19.878;2023-07-09T01:29:20;14.05;;;6.15;;
75941;SDS011;64622;46.220;19.878;2023-07-09T01:31:46;14.32;;;6.65;;
75941;SDS011;64622;46.220;19.878;2023-07-09T01:34:13;16.30;;;7.83;;
75941;SDS011;64622;46.220;19.878;2023-07-09T01:36:41;18.33;;;7.22;;
75941;SDS011;64622;46.220;19.878;2023-07-09T01:39:08;20.48;;;7.12;;
75941;SDS011;64622;46.220;19.878;2023-07-09T01:41:35;15.55;;;6.50;;
75941;SDS011;64622;46.220;19.878;2023-07-09T01:44:01;16.08;;;7.00;;
75941;SDS011;64622;46.220;19.878;2023-07-09T01:46:28;12.90;;;6.57;;
75941;SDS011;64622;46.220;19.878;2023-07-09T01:48:56;17.02;;;6.53;;
75941;SDS011;64622;46.220;19.878;2023-07-09T01:51:22;13.32;;;6.62;;
75941;SDS011;64622;46.220;19.878;2023-07-09T01:53:51;15.07;;;7.03;;
75941;SDS011;64622;46.220;19.878;2023-07-09T01:56:20;14.18;;;6.87;;
75941;SDS011;64622;46.220;19.878;2023-07-09T01:58:47;14.93;;;7.07;;
75941;SDS011;64622;46.220;19.878;2023-07-09T02:01:14;16.40;;;7.05;;
75941;SDS011;64622;46.220;19.878;2023-07-09T02:03:43;15.77;;;6.78;;
75941;SDS011;64622;46.220;19.878;2023-07-09T02:06:10;13.20;;;6.70;;
75941;SDS011;64622;46.220;19.878;2023-07-09T02:08:37;16.60;;;7.72;;
75941;SDS011;64622;46.220;19.878;2023-07-09T02:11:04;15.53;;;7.10;;
75941;SDS011;64622;46.220;19.878;2023-07-09T02:13:31;15.55;;;7.15;;
75941;SDS011;64622;46.220;19.878;2023-07-09T02:15:57;14.27;;;7.80;;
75941;SDS011;64622;46.220;19.878;2023-07-09T02:18:25;14.85;;;7.75;;
75941;SDS011;64622;46.220;19.878;2023-07-09T02:20:54;16.02;;;7.22;;
75941;SDS011;64622;46.220;19.878;2023-07-09T02:23:24;18.30;;;7.90;;
75941;SDS011;64622;46.220;19.878;2023-07-09T02:25:53;13.55;;;7.32;;
75941;SDS011;64622;46.220;19.878;2023-07-09T02:28:20;15.60;;;7.30;;
75941;SDS011;64622;46.220;19.878;2023-07-09T02:30:46;11.90;;;7.85;;
75941;SDS011;64622;46.220;19.878;2023-07-09T02:33:13;13.20;;;8.15;;
75941;SDS011;64622;46.220;19.878;2023-07-09T02:35:40;16.57;;;7.70;;
75941;SDS011;64622;46.220;19.878;2023-07-09T02:38:06;16.42;;;8.73;;
75941;SDS011;64622;46.220;19.878;2023-07-09T02:40:34;17.08;;;8.20;;
75941;SDS011;64622;46.220;19.878;2023-07-09T02:43:00;18.12;;;8.75;;
75941;SDS011;64622;46.220;19.878;2023-07-09T02:45:27;16.02;;;8.00;;
75941;SDS011;64622;46.220;19.878;2023-07-09T02:47:54;15.50;;;8.37;;
75941;SDS011;64622;46.220;19.878;2023-07-09T02:50:21;17.60;;;8.20;;
75941;SDS011;64622;46.220;19.878;2023-07-09T02:52:48;15.57;;;8.05;;
75941;SDS011;64622;46.220;19.878;2023-07-09T02:55:14;17.95;;;8.48;;
75941;SDS011;64622;46.220;19.878;2023-07-09T02:57:41;15.90;;;8.18;;
75941;SDS011;64622;46.220;19.878;2023-07-09T03:00:08;17.17;;;7.90;;
75941;SDS011;64622;46.220;19.878;2023-07-09T03:02:35;19.12;;;9.07;;
75941;SDS011;64622;46.220;19.878;2023-07-09T03:05:02;22.75;;;8.90;;
75941;SDS011;64622;46.220;19.878;2023-07-09T03:07:29;22.48;;;8.77;;
75941;SDS011;64622;46.220;19.878;2023-07-09T03:09:56;21.05;;;8.90;;
75941;SDS011;64622;46.220;19.878;2023-07-09T03:12:22;18.43;;;8.33;;
75941;SDS011;64622;46.220;19.878;2023-07-09T03:14:49;16.77;;;8.35;;
75941;SDS011;64622;46.220;19.878;2023-07-09T03:17:16;19.05;;;8.73;;
75941;SDS011;64622;46.220;19.878;2023-07-09T03:19:42;20.83;;;8.77;;
75941;SDS011;64622;46.220;19.878;2023-07-09T03:22:09;17.12;;;8.40;;
75941;SDS011;64622;46.220;19.878;2023-07-09T03:24:36;18.73;;;8.03;;
75941;SDS011;64622;46.220;19.878;2023-07-09T03:27:02;63.67;;;10.35;;
75941;SDS011;64622;46.220;19.878;2023-07-09T03:29:29;22.15;;;8.30;;
75941;SDS011;64622;46.220;19.878;2023-07-09T03:31:56;32.28;;;9.63;;
75941;SDS011;64622;46.220;19.878;2023-07-09T03:34:22;21.02;;;9.13;;
75941;SDS011;64622;46.220;19.878;2023-07-09T03:36:49;14.10;;;7.63;;
75941;SDS011;64622;46.220;19.878;2023-07-09T03:39:16;17.02;;;8.18;;
75941;SDS011;64622;46.220;19.878;2023-07-09T03:41:42;18.65;;;10.07;;
75941;SDS011;64622;46.220;19.878;2023-07-09T03:44:09;17.55;;;9.27;;
75941;SDS011;64622;46.220;19.878;2023-07-09T03:46:37;18.87;;;9.00;;
75941;SDS011;64622;46.220;19.878;2023-07-09T03:49:03;16.00;;;9.10;;
75941;SDS011;64622;46.220;19.878;2023-07-09T03:51:30;20.60;;;9.18;;
75941;SDS011;64622;46.220;19.878;2023-07-09T03:53:57;18.50;;;8.90;;
75941;SDS011;64622;46.220;19.878;2023-07-09T03:56:23;17.73;;;8.00;;
75941;SDS011;64622;46.220;19.878;2023-07-09T03:58:49;18.35;;;8.25;;
75941;SDS011;64622;46.220;19.878;2023-07-09T04:01:16;18.93;;;7.60;;
75941;SDS011;64622;46.220;19.878;2023-07-09T04:03:43;15.48;;;7.50;;
75941;SDS011;64622;46.220;19.878;2023-07-09T04:06:10;17.17;;;7.82;;
75941;SDS011;64622;46.220;19.878;2023-07-09T04:08:36;18.92;;;7.30;;
75941;SDS011;64622;46.220;19.878;2023-07-09T04:11:03;16.65;;;8.05;;
75941;SDS011;64622;46.220;19.878;2023-07-09T04:13:31;12.50;;;7.47;;
75941;SDS011;64622;46.220;19.878;2023-07-09T04:15:58;15.65;;;7.50;;
75941;SDS011;64622;46.220;19.878;2023-07-09T04:18:25;19.33;;;8.57;;
75941;SDS011;64622;46.220;19.878;2023-07-09T04:20:51;16.10;;;7.80;;
75941;SDS011;64622;46.220;19.878;2023-07-09T04:23:19;15.90;;;7.32;;
75941;SDS011;64622;46.220;19.878;2023-07-09T04:25:46;16.17;;;6.60;;
75941;SDS011;64622;46.220;19.878;2023-07-09T04:28:12;13.43;;;5.93;;
75941;SDS011;64622;46.220;19.878;2023-07-09T04:30:44;17.45;;;6.35;;
75941;SDS011;64622;46.220;19.878;2023-07-09T04:33:18;10.82;;;5.87;;
75941;SDS011;64622;46.220;19.878;2023-07-09T04:35:46;12.68;;;5.85;;
75941;SDS011;64622;46.220;19.878;2023-07-09T04:38:14;12.47;;;6.53;;
75941;SDS011;64622;46.220;19.878;2023-07-09T04:40:42;15.98;;;5.78;;
75941;SDS011;64622;46.220;19.878;2023-07-09T04:43:09;16.48;;;5.90;;
75941;SDS011;64622;46.220;19.878;2023-07-09T04:45:35;14.77;;;5.60;;
75941;SDS011;64622;46.220;19.878;2023-07-09T04:48:02;16.30;;;5.75;;
75941;SDS011;64622;46.220;19.878;2023-07-09T04:50:29;18.77;;;5.77;;
75941;SDS011;64622;46.220;19.878;2023-07-09T04:52:55;16.92;;;5.10;;
75941;SDS011;64622;46.220;19.878;2023-07-09T04:55:22;17.27;;;5.05;;
75941;SDS011;64622;46.220;19.878;2023-07-09T04:57:49;14.40;;;5.78;;
75941;SDS011;64622;46.220;19.878;2023-07-09T05:00:15;11.65;;;5.43;;
75941;SDS011;64622;46.220;19.878;2023-07-09T05:02:43;17.27;;;5.53;;
75941;SDS011;64622;46.220;19.878;2023-07-09T05:05:09;11.55;;;4.87;;
75941;SDS011;64622;46.220;19.878;2023-07-09T05:07:37;12.00;;;4.78;;
75941;SDS011;64622;46.220;19.878;2023-07-09T05:10:05;9.35;;;4.40;;
75941;SDS011;64622;46.220;19.878;2023-07-09T05:12:32;9.90;;;3.70;;
75941;SDS011;64622;46.220;19.878;2023-07-09T05:14:59;10.50;;;4.30;;
75941;SDS011;64622;46.220;19.878;2023-07-09T05:17:25;10.02;;;3.65;;
75941;SDS011;64622;46.220;19.878;2023-07-09T05:19:52;12.65;;;4.05;;
75941;SDS011;64622;46.220;19.878;2023-07-09T05:22:19;15.55;;;3.78;;
75941;SDS011;64622;46.220;19.878;2023-07-09T05:24:45;12.55;;;3.60;;
75941;SDS011;64622;46.220;19.878;2023-07-09T05:27:12;11.13;;;3.90;;
75941;SDS011;64622;46.220;19.878;2023-07-09T05:29:39;11.02;;;3.58;;
75941;SDS011;64622;46.220;19.878;2023-07-09T05:32:05;10.68;;;3.40;;
75941;SDS011;64622;46.220;19.878;2023-07-09T05:34:32;8.93;;;3.08;;
75941;SDS011;64622;46.220;19.878;2023-07-09T05:36:59;10.32;;;2.78;;
75941;SDS011;64622;46.220;19.878;2023-07-09T05:39:25;8.40;;;3.30;;
75941;SDS011;64622;46.220;19.878;2023-07-09T05:41:52;10.65;;;3.30;;
75941;SDS011;64622;46.220;19.878;2023-07-09T05:44:18;10.38;;;3.53;;
75941;SDS011;64622;46.220;19.878;2023-07-09T05:46:46;10.75;;;3.00;;
75941;SDS011;64622;46.220;19.878;2023-07-09T05:49:12;8.82;;;2.90;;
75941;SDS011;64622;46.220;19.878;2023-07-09T05:51:39;9.57;;;2.73;;
75941;SDS011;64622;46.220;19.878;2023-07-09T05:54:06;11.38;;;3.10;;
75941;SDS011;64622;46.220;19.878;2023-07-09T05:56:32;8.85;;;2.97;;
75941;SDS011;64622;46.220;19.878;2023-07-09T05:58:59;12.63;;;2.78;;
75941;SDS011;64622;46.220;19.878;2023-07-09T06:01:26;11.45;;;2.70;;
75941;SDS011;64622;46.220;19.878;2023-07-09T06:03:53;14.80;;;2.50;;
75941;SDS011;64622;46.220;19.878;2023-07-09T06:06:20;9.55;;;2.40;;
75941;SDS011;64622;46.220;19.878;2023-07-09T06:08:48;9.60;;;2.50;;
75941;SDS011;64622;46.220;19.878;2023-07-09T06:11:16;11.43;;;2.50;;
75941;SDS011;64622;46.220;19.878;2023-07-09T06:13:43;9.48;;;2.20;;
75941;SDS011;64622;46.220;19.878;2023-07-09T06:16:10;10.23;;;2.07;;
75941;SDS011;64622;46.220;19.878;2023-07-09T06:18:37;8.75;;;2.20;;
75941;SDS011;64622;46.220;19.878;2023-07-09T06:21:04;6.85;;;2.30;;
75941;SDS011;64622;46.220;19.878;2023-07-09T06:23:33;9.73;;;2.33;;
75941;SDS011;64622;46.220;19.878;2023-07-09T06:25:59;9.73;;;2.62;;
75941;SDS011;64622;46.220;19.878;2023-07-09T06:28:27;18.20;;;2.30;;
75941;SDS011;64622;46.220;19.878;2023-07-09T06:30:55;8.20;;;2.58;;
75941;SDS011;64622;46.220;19.878;2023-07-09T06:33:23;8.02;;;2.10;;
75941;SDS011;64622;46.220;19.878;2023-07-09T06:35:59;13.90;;;2.75;;
75941;SDS011;64622;46.220;19.878;2023-07-09T06:38:27;9.05;;;2.45;;
75941;SDS011;64622;46.220;19.878;2023-07-09T06:40:56;13.57;;;2.63;;
75941;SDS011;64622;46.220;19.878;2023-07-09T06:43:23;7.15;;;2.35;;
75941;SDS011;64622;46.220;19.878;2023-07-09T06:45:57;10.02;;;2.50;;
75941;SDS011;64622;46.220;19.878;2023-07-09T06:48:26;9.25;;;2.60;;
75941;SDS011;64622;46.220;19.878;2023-07-09T06:50:55;9.88;;;2.50;;
75941;SDS011;64622;46.220;19.878;2023-07-09T06:53:22;9.03;;;2.37;;
75941;SDS011;64622;46.220;19.878;2023-07-09T06:55:50;11.63;;;2.67;;
75941;SDS011;64622;46.220;19.878;2023-07-09T06:58:19;11.48;;;2.62;;
75941;SDS011;64622;46.220;19.878;2023-07-09T07:00:45;7.05;;;2.08;;
75941;SDS011;64622;46.220;19.878;2023-07-09T07:03:15;15.10;;;2.62;;
75941;SDS011;64622;46.220;19.878;2023-07-09T07:05:43;7.03;;;2.57;;
75941;SDS011;64622;46.220;19.878;2023-07-09T07:08:12;7.57;;;2.80;;
75941;SDS011;64622;46.220;19.878;2023-07-09T07:10:40;7.40;;;2.60;;
75941;SDS011;64622;46.220;19.878;2023-07-09T07:13:07;8.05;;;2.67;;
75941;SDS011;64622;46.220;19.878;2023-07-09T07:15:36;10.30;;;2.30;;
75941;SDS011;64622;46.220;19.878;2023-07-09T07:18:04;8.93;;;2.30;;
75941;SDS011;64622;46.220;19.878;2023-07-09T07:20:31;9.98;;;2.35;;
75941;SDS011;64622;46.220;19.878;2023-07-09T07:22:58;7.82;;;1.95;;
75941;SDS011;64622;46.220;19.878;2023-07-09T07:25:24;6.55;;;2.08;;
75941;SDS011;64622;46.220;19.878;2023-07-09T07:27:51;8.13;;;2.42;;
75941;SDS011;64622;46.220;19.878;2023-07-09T07:30:18;8.40;;;2.00;;
75941;SDS011;64622;46.220;19.878;2023-07-09T07:32:45;7.72;;;1.98;;
75941;SDS011;64622;46.220;19.878;2023-07-09T07:35:15;7.47;;;2.00;;
75941;SDS011;64622;46.220;19.878;2023-07-09T07:37:43;6.07;;;1.95;;
75941;SDS011;64622;46.220;19.878;2023-07-09T07:40:10;7.25;;;1.87;;
75941;SDS011;64622;46.220;19.878;2023-07-09T07:42:37;10.27;;;2.37;;
75941;SDS011;64622;46.220;19.878;2023-07-09T07:45:03;7.30;;;1.70;;
75941;SDS011;64622;46.220;19.878;2023-07-09T07:47:31;6.80;;;2.10;;
75941;SDS011;64622;46.220;19.878;2023-07-09T07:49:58;8.15;;;2.12;;
75941;SDS011;64622;46.220;19.878;2023-07-09T07:52:25;7.25;;;1.98;;
75941;SDS011;64622;46.220;19.878;2023-07-09T07:54:52;9.10;;;2.07;;
75941;SDS011;64622;46.220;19.878;2023-07-09T07:57:18;5.87;;;1.60;;
75941;SDS011;64622;46.220;19.878;2023-07-09T07:59:45;27.90;;;3.00;;
75941;SDS011;64622;46.220;19.878;2023-07-09T08:02:12;7.95;;;1.90;;
75941;SDS011;64622;46.220;19.878;2023-07-09T08:04:40;6.53;;;1.75;;
75941;SDS011;64622;46.220;19.878;2023-07-09T08:07:08;6.30;;;1.60;;
75941;SDS011;64622;46.220;19.878;2023-07-09T08:09:35;8.63;;;1.92;;
75941;SDS011;64622;46.220;19.878;2023-07-09T08:12:03;8.93;;;1.90;;
75941;SDS011;64622;46.220;19.878;2023-07-09T08:14:35;6.15;;;1.80;;
75941;SDS011;64622;46.220;19.878;2023-07-09T08:17:02;6.10;;;1.90;;
75941;SDS011;64622;46.220;19.878;2023-07-09T08:19:30;8.83;;;2.10;;
75941;SDS011;64622;46.220;19.878;2023-07-09T08:21:57;6.28;;;1.95;;
75941;SDS011;64622;46.220;19.878;2023-07-09T08:24:24;6.65;;;2.10;;
75941;SDS011;64622;46.220;19.878;2023-07-09T08:26:50;10.07;;;1.83;;
75941;SDS011;64622;46.220;19.878;2023-07-09T08:29:17;7.57;;;1.65;;
75941;SDS011;64622;46.220;19.878;2023-07-09T08:31:44;6.13;;;1.83;;
75941;SDS011;64622;46.220;19.878;2023-07-09T08:34:11;8.00;;;2.20;;
75941;SDS011;64622;46.220;19.878;2023-07-09T08:36:38;8.82;;;1.70;;
75941;SDS011;64622;46.220;19.878;2023-07-09T08:39:05;8.35;;;2.08;;
75941;SDS011;64622;46.220;19.878;2023-07-09T08:41:48;9.23;;;2.25;;
75941;SDS011;64622;46.220;19.878;2023-07-09T08:47:09;8.02;;;1.90;;
75941;SDS011;64622;46.220;19.878;2023-07-09T08:49:46;8.82;;;1.85;;
75941;SDS011;64622;46.220;19.878;2023-07-09T08:52:26;8.40;;;2.20;;
75941;SDS011;64622;46.220;19.878;2023-07-09T08:55:11;7.53;;;2.08;;
75941;SDS011;64622;46.220;19.878;2023-07-09T08:57:45;8.47;;;2.07;;
75941;SDS011;64622;46.220;19.878;2023-07-09T09:05:23;7.12;;;1.80;;
75941;SDS011;64622;46.220;19.878;2023-07-09T09:07:51;6.35;;;1.80;;
75941;SDS011;64622;46.220;19.878;2023-07-09T09:10:23;7.50;;;2.07;;
75941;SDS011;64622;46.220;19.878;2023-07-09T09:13:05;6.05;;;1.87;;
75941;SDS011;64622;46.220;19.878;2023-07-09T09:15:37;6.53;;;1.80;;
75941;SDS011;64622;46.220;19.878;2023-07-09T09:20:53;9.77;;;1.80;;
75941;SDS011;64622;46.220;19.878;2023-07-09T09:23:36;7.13;;;1.90;;
75941;SDS011;64622;46.220;19.878;2023-07-09T09:26:09;8.63;;;2.17;;
75941;SDS011;64622;46.220;19.878;2023-07-09T09:28:44;7.93;;;2.50;;
75941;SDS011;64622;46.220;19.878;2023-07-09T09:31:11;7.55;;;1.87;;
75941;SDS011;64622;46.220;19.878;2023-07-09T09:33:41;10.05;;;2.50;;
75941;SDS011;64622;46.220;19.878;2023-07-09T09:38:47;9.32;;;2.22;;
75941;SDS011;64622;46.220;19.878;2023-07-09T09:41:17;9.73;;;2.50;;
75941;SDS011;64622;46.220;19.878;2023-07-09T09:43:52;7.10;;;1.85;;
75941;SDS011;64622;46.220;19.878;2023-07-09T09:46:24;7.85;;;2.20;;
75941;SDS011;64622;46.220;19.878;2023-07-09T09:48:54;7.87;;;2.30;;
75941;SDS011;64622;46.220;19.878;2023-07-09T09:51:22;9.30;;;2.30;;
75941;SDS011;64622;46.220;19.878;2023-07-09T09:54:12;6.65;;;2.05;;
75941;SDS011;64622;46.220;19.878;2023-07-09T09:56:52;8.32;;;2.30;;
75941;SDS011;64622;46.220;19.878;2023-07-09T09:59:20;9.05;;;2.28;;
75941;SDS011;64622;46.220;19.878;2023-07-09T10:01:56;8.53;;;2.23;;
75941;SDS011;64622;46.220;19.878;2023-07-09T10:04:29;7.05;;;2.20;;
75941;SDS011;64622;46.220;19.878;2023-07-09T10:06:56;7.53;;;2.35;;
75941;SDS011;64622;46.220;19.878;2023-07-09T10:15:09;10.73;;;2.17;;
75941;SDS011;64622;46.220;19.878;2023-07-09T10:20:45;13.95;;;2.33;;
75941;SDS011;64622;46.220;19.878;2023-07-09T10:23:25;8.27;;;2.33;;
75941;SDS011;64622;46.220;19.878;2023-07-09T10:26:06;6.45;;;2.08;;
75941;SDS011;64622;46.220;19.878;2023-07-09T10:31:25;8.10;;;2.50;;
75941;SDS011;64622;46.220;19.878;2023-07-09T10:34:25;7.70;;;2.12;;
75941;SDS011;64622;46.220;19.878;2023-07-09T10:37:08;7.70;;;2.25;;
75941;SDS011;64622;46.220;19.878;2023-07-09T10:39:57;7.05;;;2.60;;
75941;SDS011;64622;46.220;19.878;2023-07-09T10:42:27;7.50;;;2.40;;
75941;SDS011;64622;46.220;19.878;2023-07-09T10:45:02;7.60;;;2.35;;
75941;SDS011;64622;46.220;19.878;2023-07-09T10:47:47;9.85;;;2.60;;
75941;SDS011;64622;46.220;19.878;2023-07-09T10:50:37;6.93;;;2.12;;
75941;SDS011;64622;46.220;19.878;2023-07-09T10:53:09;9.57;;;2.30;;
75941;SDS011;64622;46.220;19.878;2023-07-09T10:58:30;11.82;;;2.30;;
75941;SDS011;64622;46.220;19.878;2023-07-09T11:01:02;10.18;;;2.50;;
75941;SDS011;64622;46.220;19.878;2023-07-09T11:06:10;6.65;;;2.33;;
75941;SDS011;64622;46.220;19.878;2023-07-09T11:08:42;6.87;;;2.37;;
75941;SDS011;64622;46.220;19.878;2023-07-09T11:11:13;7.15;;;2.45;;
75941;SDS011;64622;46.220;19.878;2023-07-09T11:13:54;8.00;;;2.62;;
75941;SDS011;64622;46.220;19.878;2023-07-09T11:16:28;8.57;;;2.53;;
75941;SDS011;64622;46.220;19.878;2023-07-09T11:19:02;7.00;;;2.55;;
75941;SDS011;64622;46.220;19.878;2023-07-09T11:21:32;8.53;;;2.77;;
75941;SDS011;64622;46.220;19.878;2023-07-09T11:24:00;10.98;;;2.83;;
75941;SDS011;64622;46.220;19.878;2023-07-09T11:26:31;9.63;;;2.10;;
75941;SDS011;64622;46.220;19.878;2023-07-09T11:31:36;9.25;;;2.30;;
75941;SDS011;64622;46.220;19.878;2023-07-09T11:42:02;8.25;;;2.20;;
75941;SDS011;64622;46.220;19.878;2023-07-09T11:44:32;7.45;;;2.30;;
75941;SDS011;64622;46.220;19.878;2023-07-09T11:49:54;10.30;;;2.22;;
75941;SDS011;64622;46.220;19.878;2023-07-09T11:52:29;8.15;;;2.40;;
75941;SDS011;64622;46.220;19.878;2023-07-09T11:55:39;6.95;;;2.20;;
75941;SDS011;64622;46.220;19.878;2023-07-09T11:58:01;8.93;;;2.70;;
75941;SDS011;64622;46.220;19.878;2023-07-09T12:00:33;7.67;;;2.37;;
75941;SDS011;64622;46.220;19.878;2023-07-09T12:03:15;8.75;;;2.45;;
75941;SDS011;64622;46.220;19.878;2023-07-09T12:05:50;7.85;;;2.55;;
75941;SDS011;64622;46.220;19.878;2023-07-09T12:08:21;6.25;;;2.17;;
75941;SDS011;64622;46.220;19.878;2023-07-09T12:11:02;7.20;;;2.30;;
75941;SDS011;64622;46.220;19.878;2023-07-09T12:13:36;6.30;;;1.90;;
75941;SDS011;64622;46.220;19.878;2023-07-09T12:16:20;8.68;;;2.10;;
75941;SDS011;64622;46.220;19.878;2023-07-09T12:18:58;9.32;;;2.55;;
75941;SDS011;64622;46.220;19.878;2023-07-09T12:21:24;6.93;;;2.30;;
75941;SDS011;64622;46.220;19.878;2023-07-09T12:23:52;8.52;;;2.30;;
75941;SDS011;64622;46.220;19.878;2023-07-09T12:26:22;6.70;;;2.30;;
75941;SDS011;64622;46.220;19.878;2023-07-09T12:28:52;9.50;;;2.30;;
75941;SDS011;64622;46.220;19.878;2023-07-09T12:31:25;7.70;;;1.95;;
75941;SDS011;64622;46.220;19.878;2023-07-09T12:33:54;7.22;;;2.40;;
75941;SDS011;64622;46.220;19.878;2023-07-09T12:36:23;8.75;;;2.53;;
75941;SDS011;64622;46.220;19.878;2023-07-09T12:38:52;8.77;;;2.33;;
75941;SDS011;64622;46.220;19.878;2023-07-09T12:41:24;9.13;;;2.40;;
75941;SDS011;64622;46.220;19.878;2023-07-09T12:43:53;6.97;;;2.50;;
75941;SDS011;64622;46.220;19.878;2023-07-09T12:46:22;6.20;;;2.25;;
75941;SDS011;64622;46.220;19.878;2023-07-09T12:48:50;7.93;;;2.58;;
75941;SDS011;64622;46.220;19.878;2023-07-09T12:51:23;7.53;;;2.37;;
75941;SDS011;64622;46.220;19.878;2023-07-09T12:54:11;6.90;;;2.40;;
75941;SDS011;64622;46.220;19.878;2023-07-09T12:56:41;7.00;;;2.40;;
75941;SDS011;64622;46.220;19.878;2023-07-09T12:59:19;8.75;;;2.87;;
75941;SDS011;64622;46.220;19.878;2023-07-09T13:01:48;8.75;;;2.53;;
75941;SDS011;64622;46.220;19.878;2023-07-09T13:04:17;7.97;;;2.23;;
75941;SDS011;64622;46.220;19.878;2023-07-09T13:06:44;6.93;;;2.40;;
75941;SDS011;64622;46.220;19.878;2023-07-09T13:09:17;8.65;;;2.45;;
75941;SDS011;64622;46.220;19.878;2023-07-09T13:11:48;7.90;;;2.53;;
75941;SDS011;64622;46.220;19.878;2023-07-09T13:14:25;7.30;;;2.42;;
75941;SDS011;64622;46.220;19.878;2023-07-09T13:17:01;7.30;;;2.50;;
75941;SDS011;64622;46.220;19.878;2023-07-09T13:19:29;7.10;;;2.55;;
75941;SDS011;64622;46.220;19.878;2023-07-09T13:21:56;9.43;;;2.67;;
75941;SDS011;64622;46.220;19.878;2023-07-09T13:24:24;7.37;;;2.42;;
75941;SDS011;64622;46.220;19.878;2023-07-09T13:26:52;7.43;;;2.40;;
75941;SDS011;64622;46.220;19.878;2023-07-09T13:29:19;11.13;;;3.00;;
75941;SDS011;64622;46.220;19.878;2023-07-09T13:31:47;7.62;;;2.70;;
75941;SDS011;64622;46.220;19.878;2023-07-09T13:34:18;11.52;;;2.70;;
75941;SDS011;64622;46.220;19.878;2023-07-09T13:36:48;7.78;;;3.12;;
75941;SDS011;64622;46.220;19.878;2023-07-09T13:39:17;7.82;;;2.60;;
75941;SDS011;64622;46.220;19.878;2023-07-09T13:41:47;9.60;;;2.70;;
75941;SDS011;64622;46.220;19.878;2023-07-09T13:46:51;8.18;;;2.92;;
75941;SDS011;64622;46.220;19.878;2023-07-09T13:49:19;10.13;;;2.87;;
75941;SDS011;64622;46.220;19.878;2023-07-09T13:51:49;8.63;;;2.95;;
75941;SDS011;64622;46.220;19.878;2023-07-09T13:54:19;10.00;;;2.80;;
75941;SDS011;64622;46.220;19.878;2023-07-09T13:56:47;8.82;;;2.85;;
75941;SDS011;64622;46.220;19.878;2023-07-09T13:59:17;8.57;;;3.00;;
75941;SDS011;64622;46.220;19.878;2023-07-09T14:01:48;8.88;;;3.00;;
75941;SDS011;64622;46.220;19.878;2023-07-09T14:04:17;8.13;;;2.67;;
75941;SDS011;64622;46.220;19.878;2023-07-09T14:06:45;7.90;;;2.70;;
75941;SDS011;64622;46.220;19.878;2023-07-09T14:09:15;7.70;;;3.08;;
75941;SDS011;64622;46.220;19.878;2023-07-09T14:11:50;7.80;;;2.90;;
75941;SDS011;64622;46.220;19.878;2023-07-09T14:14:21;8.50;;;2.35;;
75941;SDS011;64622;46.220;19.878;2023-07-09T14:16:52;9.60;;;3.03;;
75941;SDS011;64622;46.220;19.878;2023-07-09T14:19:20;8.17;;;2.93;;
75941;SDS011;64622;46.220;19.878;2023-07-09T14:21:48;7.68;;;2.60;;
75941;SDS011;64622;46.220;19.878;2023-07-09T14:24:27;7.47;;;2.72;;
75941;SDS011;64622;46.220;19.878;2023-07-09T14:26:56;9.30;;;2.92;;
75941;SDS011;64622;46.220;19.878;2023-07-09T14:29:24;7.95;;;2.42;;
75941;SDS011;64622;46.220;19.878;2023-07-09T14:31:52;11.93;;;2.70;;
75941;SDS011;64622;46.220;19.878;2023-07-09T14:34:19;8.05;;;2.75;;
75941;SDS011;64622;46.220;19.878;2023-07-09T14:36:54;7.30;;;2.72;;
75941;SDS011;64622;46.220;19.878;2023-07-09T14:39:25;7.43;;;2.60;;
75941;SDS011;64622;46.220;19.878;2023-07-09T14:41:52;7.78;;;2.50;;
75941;SDS011;64622;46.220;19.878;2023-07-09T14:46:56;11.45;;;2.72;;
75941;SDS011;64622;46.220;19.878;2023-07-09T14:49:26;7.57;;;2.87;;
75941;SDS011;64622;46.220;19.878;2023-07-09T14:51:53;8.85;;;2.80;;
75941;SDS011;64622;46.220;19.878;2023-07-09T14:54:27;7.87;;;2.72;;
75941;SDS011;64622;46.220;19.878;2023-07-09T14:56:56;11.03;;;2.90;;
75941;SDS011;64622;46.220;19.878;2023-07-09T14:59:26;7.75;;;2.55;;
75941;SDS011;64622;46.220;19.878;2023-07-09T15:01:55;7.72;;;2.55;;
75941;SDS011;64622;46.220;19.878;2023-07-09T15:06:59;7.55;;;2.35;;
75941;SDS011;64622;46.220;19.878;2023-07-09T15:09:27;8.97;;;2.83;;
75941;SDS011;64622;46.220;19.878;2023-07-09T15:11:55;11.40;;;2.80;;
75941;SDS011;64622;46.220;19.878;2023-07-09T15:14:24;7.20;;;2.62;;
75941;SDS011;64622;46.220;19.878;2023-07-09T15:16:52;7.93;;;2.67;;
75941;SDS011;64622;46.220;19.878;2023-07-09T15:19:20;9.05;;;2.90;;
75941;SDS011;64622;46.220;19.878;2023-07-09T15:21:50;7.43;;;2.60;;
75941;SDS011;64622;46.220;19.878;2023-07-09T15:27:17;8.68;;;2.25;;
75941;SDS011;64622;46.220;19.878;2023-07-09T15:29:44;8.40;;;2.80;;
75941;SDS011;64622;46.220;19.878;2023-07-09T15:32:12;7.12;;;2.60;;
75941;SDS011;64622;46.220;19.878;2023-07-09T15:34:41;8.50;;;2.50;;
75941;SDS011;64622;46.220;19.878;2023-07-09T15:37:12;9.38;;;2.60;;
75941;SDS011;64622;46.220;19.878;2023-07-09T15:39:41;6.80;;;2.47;;